Rosewood, Indiana
Current Conditions -  °F | °C
As of 4:56 AM on Wednesday 22 Oct 2014 (Local Time) from KSDF Reporting Station
Clear Clear  
Wind Chill: 42°   Ceiling: Unl
Heat Index: 46°   Visibility: 10mi
Dew Point: 40°   Wind: 8mph
Humidity: 79%   Direction: 10°N
Pressure: 30.22"   Gusts: NA
Location:  38.1042°N, 85.9595°W
Report Text: KSDF 220856Z 01007KT 10SM CLR 08/04 A3022 RMK AO2 SLP233 T00780044 53013
Loading
Personal Weather Stations






























Interactive Weather Map
Tropical Storm Tracking
New forecast layout! Learn more

10-Day Weather Forecast

Advertisements
Track Severe Weather on mobile